Time;durP1;ratioP1;P1;durP2;ratioP2;P2;SDS_P1;SDS_P2;PMS_P1;PMS_P2;Temp;Humidity;BMP_temperature;BMP_pressure;BME280_temperature;BME280_humidity;BME280_pressure;Samples;Min_cycle;Max_cycle;Signal;HPM_P1;HPM_P2
2021/11/06 00:00:17;;;;;;;5.35;2.70;;;;;;;;;;5093392;28;20419;-83
2021/11/06 00:02:44;;;;;;;4.28;2.95;;;;;;;;;;5094862;28;20423;-83
2021/11/06 00:05:11;;;;;;;3.60;2.92;;;;;;;;;;5087464;28;20403;-83
2021/11/06 00:07:40;;;;;;;4.17;2.93;;;;;;;;;;5092698;28;20454;-83
2021/11/06 00:10:09;;;;;;;5.13;3.07;;;;;;;;;;5090524;28;20400;-81
2021/11/06 00:12:36;;;;;;;3.30;2.70;;;;;;;;;;5089680;28;20449;-83
2021/11/06 00:15:04;;;;;;;4.50;2.80;;;;;;;;;;5091861;28;20800;-80
2021/11/06 00:17:30;;;;;;;4.63;3.05;;;;;;;;;;5095659;28;20890;-83
2021/11/06 00:19:57;;;;;;;3.13;2.65;;;;;;;;;;5093948;28;20418;-83
2021/11/06 00:22:24;;;;;;;3.80;3.10;;;;;;;;;;5100098;28;20407;-83
2021/11/06 00:24:52;;;;;;;4.00;2.60;;;;;;;;;;5097088;28;20406;-83
2021/11/06 00:27:19;;;;;;;3.58;2.72;;;;;;;;;;5095586;28;20401;-82
2021/11/06 00:29:46;;;;;;;3.22;2.70;;;;;;;;;;5094336;28;20477;-83
2021/11/06 00:32:13;;;;;;;3.00;2.70;;;;;;;;;;5096499;28;20895;-83
2021/11/06 00:34:40;;;;;;;3.53;2.70;;;;;;;;;;5097417;28;20392;-82
2021/11/06 00:37:06;;;;;;;3.33;2.72;;;;;;;;;;5096000;28;20408;-83
2021/11/06 00:39:33;;;;;;;3.22;2.70;;;;;;;;;;5094803;28;20817;-83
2021/11/06 00:42:02;;;;;;;3.95;2.58;;;;;;;;;;5093524;28;20410;-83
2021/11/06 00:44:28;;;;;;;4.05;2.70;;;;;;;;;;5091244;28;20417;-83
2021/11/06 00:46:56;;;;;;;3.45;2.50;;;;;;;;;;5093763;28;20403;-83
2021/11/06 00:49:22;;;;;;;3.60;2.67;;;;;;;;;;5093590;28;20416;-83
2021/11/06 00:51:49;;;;;;;3.50;2.53;;;;;;;;;;5092430;28;20959;-83
2021/11/06 00:54:16;;;;;;;2.78;2.30;;;;;;;;;;5095623;28;20400;-82
2021/11/06 00:56:43;;;;;;;3.53;2.50;;;;;;;;;;5092161;28;20400;-83
2021/11/06 00:59:12;;;;;;;3.13;2.60;;;;;;;;;;5094321;28;20462;-83
2021/11/06 01:01:38;;;;;;;3.28;2.60;;;;;;;;;;5096783;28;20406;-82
2021/11/06 01:04:05;;;;;;;3.28;2.70;;;;;;;;;;5098122;28;20390;-82
2021/11/06 01:06:32;;;;;;;3.53;2.40;;;;;;;;;;5107255;28;20405;-83
2021/11/06 01:08:59;;;;;;;3.20;2.67;;;;;;;;;;5113041;28;20394;-83
2021/11/06 01:11:26;;;;;;;3.25;2.65;;;;;;;;;;5112036;28;20422;-82
2021/11/06 01:13:53;;;;;;;2.75;2.50;;;;;;;;;;5098747;28;20394;-83
2021/11/06 01:16:21;;;;;;;4.50;2.70;;;;;;;;;;5097997;28;20390;-82
2021/11/06 01:18:48;;;;;;;2.97;2.55;;;;;;;;;;5097165;28;20401;-83
2021/11/06 01:21:15;;;;;;;4.40;2.75;;;;;;;;;;5097571;28;20443;-82
2021/11/06 01:23:42;;;;;;;2.90;2.50;;;;;;;;;;5096432;28;20412;-82
2021/11/06 01:26:09;;;;;;;4.35;2.88;;;;;;;;;;5090954;28;20416;-83
2021/11/06 01:28:35;;;;;;;2.40;2.20;;;;;;;;;;5092825;28;20403;-83
2021/11/06 01:31:02;;;;;;;2.78;2.40;;;;;;;;;;5094700;28;20409;-83
2021/11/06 01:33:31;;;;;;;3.85;2.70;;;;;;;;;;5097518;28;20411;-82
2021/11/06 01:35:57;;;;;;;3.55;2.30;;;;;;;;;;5098330;27;20441;-83
2021/11/06 01:38:24;;;;;;;3.10;2.50;;;;;;;;;;5092297;28;20412;-82
2021/11/06 01:40:51;;;;;;;3.08;2.78;;;;;;;;;;5094711;28;20423;-83
2021/11/06 01:43:18;;;;;;;3.00;2.50;;;;;;;;;;5093771;28;20403;-83
2021/11/06 01:45:45;;;;;;;4.82;2.70;;;;;;;;;;5093640;28;20401;-83
2021/11/06 01:48:12;;;;;;;3.03;2.72;;;;;;;;;;5099480;27;20395;-83
2021/11/06 01:50:40;;;;;;;3.00;2.33;;;;;;;;;;5097089;28;20459;-82
2021/11/06 01:53:07;;;;;;;4.15;2.42;;;;;;;;;;5096557;28;20399;-82
2021/11/06 01:55:34;;;;;;;3.58;2.40;;;;;;;;;;5090287;28;20413;-82
2021/11/06 01:58:01;;;;;;;3.67;2.50;;;;;;;;;;5095983;28;20887;-83
2021/11/06 02:00:29;;;;;;;3.20;2.10;;;;;;;;;;5097947;27;20468;-83
2021/11/06 02:02:56;;;;;;;2.38;1.77;;;;;;;;;;5101913;28;20416;-82
2021/11/06 02:05:24;;;;;;;3.47;2.20;;;;;;;;;;5106214;28;20399;-82
2021/11/06 02:07:53;;;;;;;2.33;2.10;;;;;;;;;;5105104;28;20411;-83
2021/11/06 02:10:20;;;;;;;2.72;2.00;;;;;;;;;;5102555;28;20396;-82
2021/11/06 02:12:49;;;;;;;2.60;1.80;;;;;;;;;;5107055;28;20413;-83
2021/11/06 02:15:18;;;;;;;2.78;1.95;;;;;;;;;;5102659;27;20966;-82
2021/11/06 02:17:46;;;;;;;2.13;1.90;;;;;;;;;;5103003;27;20483;-82
2021/11/06 02:20:13;;;;;;;2.70;1.73;;;;;;;;;;5100292;28;20418;-83
2021/11/06 02:22:42;;;;;;;2.13;1.70;;;;;;;;;;5102526;28;20404;-83
2021/11/06 02:25:10;;;;;;;2.47;1.83;;;;;;;;;;5098590;28;20444;-83
2021/11/06 02:27:37;;;;;;;2.78;1.98;;;;;;;;;;5105293;28;20477;-83
2021/11/06 02:30:04;;;;;;;3.97;2.10;;;;;;;;;;5104046;28;20885;-83
2021/11/06 02:32:32;;;;;;;2.42;2.00;;;;;;;;;;5099750;28;20451;-83
2021/11/06 02:34:59;;;;;;;3.50;2.20;;;;;;;;;;5104455;28;20511;-83
2021/11/06 02:37:26;;;;;;;2.50;2.10;;;;;;;;;;5104678;28;20402;-82
2021/11/06 02:39:54;;;;;;;2.20;2.00;;;;;;;;;;5104902;28;20416;-83
2021/11/06 02:42:21;;;;;;;2.88;2.17;;;;;;;;;;5104876;28;20438;-83
2021/11/06 02:44:48;;;;;;;3.08;1.90;;;;;;;;;;5104618;28;20396;-83
2021/11/06 02:47:15;;;;;;;2.73;2.13;;;;;;;;;;5103453;28;20441;-83
2021/11/06 02:49:42;;;;;;;2.30;2.00;;;;;;;;;;5104654;28;20490;-83
2021/11/06 02:52:09;;;;;;;3.10;2.10;;;;;;;;;;5097825;27;20428;-83
2021/11/06 02:54:37;;;;;;;3.15;2.08;;;;;;;;;;5100233;28;20410;-83
2021/11/06 02:57:05;;;;;;;2.70;2.13;;;;;;;;;;5104571;28;20410;-83
2021/11/06 02:59:32;;;;;;;2.83;1.93;;;;;;;;;;5096759;28;20490;-83
2021/11/06 03:01:59;;;;;;;2.17;1.90;;;;;;;;;;5100927;28;20821;-82
2021/11/06 03:04:26;;;;;;;2.35;2.00;;;;;;;;;;5105330;28;20403;-83
2021/11/06 03:06:52;;;;;;;2.75;1.88;;;;;;;;;;5104091;28;20461;-83
2021/11/06 03:09:20;;;;;;;2.43;1.90;;;;;;;;;;5093692;28;20472;-83
2021/11/06 03:11:47;;;;;;;2.63;2.10;;;;;;;;;;5104372;28;20906;-83
2021/11/06 03:14:16;;;;;;;3.50;1.90;;;;;;;;;;5091880;28;20494;-83
2021/11/06 03:16:44;;;;;;;3.08;1.90;;;;;;;;;;5096618;28;20463;-83
2021/11/06 03:19:10;;;;;;;4.10;2.22;;;;;;;;;;5103885;28;20758;-83
2021/11/06 03:21:37;;;;;;;2.30;2.08;;;;;;;;;;5097962;28;21251;-83
2021/11/06 03:24:05;;;;;;;2.85;2.13;;;;;;;;;;5098279;28;20763;-83
2021/11/06 03:26:32;;;;;;;3.17;2.10;;;;;;;;;;5105502;28;20440;-83
2021/11/06 03:28:59;;;;;;;2.80;2.50;;;;;;;;;;5096864;28;20409;-83
2021/11/06 03:31:27;;;;;;;2.30;2.08;;;;;;;;;;5100742;28;20390;-83
2021/11/06 03:33:54;;;;;;;2.70;2.40;;;;;;;;;;5098362;28;20442;-83
2021/11/06 03:36:21;;;;;;;3.33;2.20;;;;;;;;;;5103564;28;20898;-83
2021/11/06 03:38:48;;;;;;;2.72;2.17;;;;;;;;;;5090847;28;20418;-83
2021/11/06 03:41:15;;;;;;;2.45;2.25;;;;;;;;;;5103939;28;20439;-83
2021/11/06 03:43:42;;;;;;;3.00;2.08;;;;;;;;;;5091036;28;20423;-83
2021/11/06 03:46:09;;;;;;;2.67;2.20;;;;;;;;;;5095288;28;20792;-83
2021/11/06 03:48:37;;;;;;;2.70;1.95;;;;;;;;;;5101683;28;20439;-83
2021/11/06 03:51:04;;;;;;;3.50;2.17;;;;;;;;;;5099876;28;20470;-83
2021/11/06 03:53:32;;;;;;;2.58;2.08;;;;;;;;;;5094960;28;20401;-82
2021/11/06 03:55:59;;;;;;;3.13;2.00;;;;;;;;;;5102991;28;20455;-83
2021/11/06 03:58:26;;;;;;;2.42;2.10;;;;;;;;;;5105701;28;20753;-83
2021/11/06 04:00:53;;;;;;;2.33;2.00;;;;;;;;;;5099806;27;20793;-83
2021/11/06 04:03:20;;;;;;;2.72;2.00;;;;;;;;;;5104177;28;20399;-83
2021/11/06 04:05:48;;;;;;;2.42;2.03;;;;;;;;;;5104068;27;20403;-83
2021/11/06 04:08:15;;;;;;;2.80;2.15;;;;;;;;;;5106694;28;20444;-83
2021/11/06 04:10:42;;;;;;;3.20;2.10;;;;;;;;;;5116906;28;20392;-82
2021/11/06 04:13:09;;;;;;;2.95;2.20;;;;;;;;;;5131391;28;20418;-83
2021/11/06 04:15:36;;;;;;;2.60;2.10;;;;;;;;;;5108652;28;20403;-83
2021/11/06 04:18:03;;;;;;;2.73;1.80;;;;;;;;;;5093954;28;20422;-83
2021/11/06 04:20:30;;;;;;;3.00;1.98;;;;;;;;;;5100001;28;20416;-83
2021/11/06 04:23:00;;;;;;;3.33;2.05;;;;;;;;;;5095053;28;20396;-83
2021/11/06 04:25:27;;;;;;;3.72;1.77;;;;;;;;;;5108515;28;20983;-83
2021/11/06 04:27:54;;;;;;;2.00;1.60;;;;;;;;;;5107967;28;20403;-83
2021/11/06 04:30:21;;;;;;;2.00;1.70;;;;;;;;;;5105764;28;20798;-83
2021/11/06 04:32:48;;;;;;;2.80;2.00;;;;;;;;;;5099435;28;20430;-83
2021/11/06 04:35:15;;;;;;;2.67;1.80;;;;;;;;;;5106317;28;20415;-83
2021/11/06 04:37:42;;;;;;;2.30;1.92;;;;;;;;;;5108503;28;20398;-83
2021/11/06 04:40:13;;;;;;;2.20;1.90;;;;;;;;;;5107617;28;20911;-83
2021/11/06 04:42:41;;;;;;;2.28;2.05;;;;;;;;;;5105987;28;20398;-82
2021/11/06 04:45:10;;;;;;;3.28;2.08;;;;;;;;;;5105889;28;20448;-83
2021/11/06 04:47:37;;;;;;;1.88;1.67;;;;;;;;;;5106368;28;20739;-82
2021/11/06 04:50:05;;;;;;;3.70;2.10;;;;;;;;;;5105510;28;20404;-83
2021/11/06 04:52:33;;;;;;;2.30;1.73;;;;;;;;;;5106235;28;20402;-83
2021/11/06 04:55:00;;;;;;;3.50;1.90;;;;;;;;;;5105061;28;20499;-83
2021/11/06 04:57:28;;;;;;;2.47;1.80;;;;;;;;;;5099103;28;20666;-83
2021/11/06 04:59:55;;;;;;;2.20;1.75;;;;;;;;;;5094110;28;20477;-83
2021/11/06 05:02:22;;;;;;;2.17;1.60;;;;;;;;;;5095154;27;20903;-83
2021/11/06 05:04:49;;;;;;;2.03;1.67;;;;;;;;;;5094731;28;20413;-83
2021/11/06 05:07:16;;;;;;;2.15;1.73;;;;;;;;;;5094340;28;20429;-83
2021/11/06 05:09:44;;;;;;;2.10;1.90;;;;;;;;;;5104059;28;20472;-83
2021/11/06 05:12:12;;;;;;;2.97;1.80;;;;;;;;;;5105977;28;20535;-83
2021/11/06 05:14:40;;;;;;;3.40;1.88;;;;;;;;;;5105038;28;20395;-83
2021/11/06 05:17:08;;;;;;;2.40;1.90;;;;;;;;;;5096537;27;20451;-83
2021/11/06 05:19:36;;;;;;;2.17;1.60;;;;;;;;;;5103097;28;20403;-83
2021/11/06 05:22:03;;;;;;;2.10;1.60;;;;;;;;;;5099887;28;20464;-83
2021/11/06 05:24:29;;;;;;;2.25;1.85;;;;;;;;;;5101112;28;20421;-83
2021/11/06 05:26:56;;;;;;;2.45;1.90;;;;;;;;;;5104579;28;20931;-83
2021/11/06 05:29:23;;;;;;;2.20;1.75;;;;;;;;;;5106475;28;20480;-83
2021/11/06 05:31:51;;;;;;;5.75;3.55;;;;;;;;;;5101194;28;20424;-83
2021/11/06 05:34:18;;;;;;;5.35;2.95;;;;;;;;;;5107438;28;20800;-83
2021/11/06 05:36:45;;;;;;;6.45;3.25;;;;;;;;;;5104340;28;20405;-84
2021/11/06 05:39:12;;;;;;;4.60;2.22;;;;;;;;;;5102793;28;20394;-83
2021/11/06 05:41:39;;;;;;;2.50;2.10;;;;;;;;;;5103532;28;20937;-83
2021/11/06 05:44:06;;;;;;;2.43;1.97;;;;;;;;;;5104470;28;20490;-83
2021/11/06 05:46:33;;;;;;;1.98;1.85;;;;;;;;;;5104375;28;20470;-82
2021/11/06 05:49:01;;;;;;;2.33;1.98;;;;;;;;;;5102411;27;20416;-82
2021/11/06 05:51:28;;;;;;;3.50;2.00;;;;;;;;;;5097777;28;20976;-82
2021/11/06 05:53:54;;;;;;;2.97;2.15;;;;;;;;;;5099295;28;20414;-82
2021/11/06 05:56:21;;;;;;;3.17;2.45;;;;;;;;;;5103728;28;20403;-82
2021/11/06 05:58:48;;;;;;;3.80;2.60;;;;;;;;;;5099469;28;20393;-82
2021/11/06 06:01:15;;;;;;;2.85;2.40;;;;;;;;;;5102339;27;20668;-82
2021/11/06 06:03:43;;;;;;;3.53;2.50;;;;;;;;;;5099479;28;20421;-82
2021/11/06 06:06:11;;;;;;;5.00;3.33;;;;;;;;;;5100608;27;20416;-82
2021/11/06 06:08:38;;;;;;;5.40;4.07;;;;;;;;;;5103223;28;20441;-81
2021/11/06 06:11:04;;;;;;;4.90;3.53;;;;;;;;;;5099945;28;20479;-81
2021/11/06 06:13:31;;;;;;;3.90;2.92;;;;;;;;;;5098083;28;20410;-81
2021/11/06 06:15:58;;;;;;;5.13;3.30;;;;;;;;;;5100768;28;20515;-81
2021/11/06 06:18:25;;;;;;;4.18;3.10;;;;;;;;;;5103061;28;20399;-83
2021/11/06 06:20:52;;;;;;;4.85;3.35;;;;;;;;;;5101158;28;20422;-82
2021/11/06 06:23:20;;;;;;;5.25;3.45;;;;;;;;;;5104307;28;20398;-83
2021/11/06 06:25:47;;;;;;;3.90;3.50;;;;;;;;;;5100233;28;20406;-83
2021/11/06 06:28:14;;;;;;;4.28;3.35;;;;;;;;;;5096868;28;20510;-83
2021/11/06 06:30:40;;;;;;;4.27;3.53;;;;;;;;;;5101578;28;20397;-83
2021/11/06 06:33:07;;;;;;;5.85;4.32;;;;;;;;;;5094185;27;20402;-83
2021/11/06 06:35:34;;;;;;;4.97;3.83;;;;;;;;;;5100826;28;20404;-83
2021/11/06 06:38:01;;;;;;;4.53;3.20;;;;;;;;;;5095599;28;20756;-83
2021/11/06 06:40:30;;;;;;;3.20;2.80;;;;;;;;;;5093484;28;20478;-84
2021/11/06 06:42:57;;;;;;;4.05;2.67;;;;;;;;;;5098453;28;20419;-82
2021/11/06 06:45:24;;;;;;;3.13;2.70;;;;;;;;;;5093609;28;20399;-82
2021/11/06 06:47:51;;;;;;;3.75;3.15;;;;;;;;;;5100929;28;20398;-82
2021/11/06 06:50:18;;;;;;;5.28;3.13;;;;;;;;;;5094387;28;20485;-81
2021/11/06 06:52:46;;;;;;;5.07;3.25;;;;;;;;;;5096488;28;20413;-82
2021/11/06 06:55:14;;;;;;;4.63;3.60;;;;;;;;;;5097708;28;20457;-81
2021/11/06 06:57:42;;;;;;;5.53;3.90;;;;;;;;;;5102047;28;20398;-81
2021/11/06 07:00:12;;;;;;;7.05;4.05;;;;;;;;;;5096777;28;20931;-81
2021/11/06 07:02:39;;;;;;;6.40;4.22;;;;;;;;;;5097334;28;20461;-81
2021/11/06 07:05:09;;;;;;;6.57;4.10;;;;;;;;;;5096169;28;20408;-82
2021/11/06 07:07:36;;;;;;;6.20;4.15;;;;;;;;;;5099374;28;20438;-81
2021/11/06 07:10:04;;;;;;;6.37;4.20;;;;;;;;;;5103479;28;20400;-81
2021/11/06 07:12:33;;;;;;;5.87;4.20;;;;;;;;;;5097203;28;20398;-82
2021/11/06 07:15:01;;;;;;;4.97;3.58;;;;;;;;;;5110228;28;20474;-82
2021/11/06 07:17:28;;;;;;;4.68;3.60;;;;;;;;;;5113777;28;20382;-82
2021/11/06 07:19:54;;;;;;;5.13;3.53;;;;;;;;;;5096960;28;20426;-82
2021/11/06 07:22:21;;;;;;;4.60;3.60;;;;;;;;;;5096944;28;20485;-82
2021/11/06 07:24:49;;;;;;;4.60;3.70;;;;;;;;;;5093614;28;20779;-83
2021/11/06 07:27:15;;;;;;;5.00;3.63;;;;;;;;;;5095238;28;20403;-82
2021/11/06 07:29:43;;;;;;;4.45;3.40;;;;;;;;;;5097089;28;20398;-77
2021/11/06 07:32:11;;;;;;;4.20;3.40;;;;;;;;;;5098451;28;20409;-82
2021/11/06 07:34:38;;;;;;;5.22;3.30;;;;;;;;;;5097535;28;20405;-81
2021/11/06 07:37:06;;;;;;;3.22;2.80;;;;;;;;;;5103909;28;20406;-82
2021/11/06 07:39:33;;;;;;;4.15;3.05;;;;;;;;;;5104358;28;20399;-83
2021/11/06 07:42:00;;;;;;;4.55;3.08;;;;;;;;;;5101827;28;21281;-82
2021/11/06 07:44:27;;;;;;;5.35;3.30;;;;;;;;;;5102074;28;20404;-82
2021/11/06 07:46:53;;;;;;;5.22;3.67;;;;;;;;;;5101316;28;20418;-82
2021/11/06 07:49:22;;;;;;;5.82;4.50;;;;;;;;;;5104796;28;20390;-82
2021/11/06 07:51:48;;;;;;;7.35;4.63;;;;;;;;;;5098709;28;20427;-82
2021/11/06 07:54:15;;;;;;;7.40;4.50;;;;;;;;;;5100358;28;21071;-86
2021/11/06 07:56:42;;;;;;;5.60;4.18;;;;;;;;;;5098831;28;20406;-82
2021/11/06 07:59:09;;;;;;;5.95;3.95;;;;;;;;;;5101905;28;21220;-84
2021/11/06 08:01:36;;;;;;;5.78;3.80;;;;;;;;;;5098212;28;21395;-83
2021/11/06 08:04:03;;;;;;;6.55;4.13;;;;;;;;;;5101414;28;20407;-83
2021/11/06 08:06:32;;;;;;;5.07;4.00;;;;;;;;;;5098419;28;20399;-84
2021/11/06 08:08:59;;;;;;;16.48;9.90;;;;;;;;;;5098938;28;20878;-84
2021/11/06 08:11:26;;;;;;;6.68;4.97;;;;;;;;;;5102568;28;20400;-84
2021/11/06 08:13:53;;;;;;;7.82;4.78;;;;;;;;;;5097891;28;20466;-83
2021/11/06 08:16:20;;;;;;;6.32;4.38;;;;;;;;;;5098024;28;20423;-84
2021/11/06 08:18:47;;;;;;;7.05;5.03;;;;;;;;;;5101818;28;20426;-84
2021/11/06 08:21:14;;;;;;;7.05;4.60;;;;;;;;;;5102878;28;20406;-84
2021/11/06 08:23:42;;;;;;;7.50;4.30;;;;;;;;;;5103677;28;20396;-83
2021/11/06 08:26:09;;;;;;;5.93;4.10;;;;;;;;;;5093734;28;20977;-84
2021/11/06 08:28:36;;;;;;;7.82;4.18;;;;;;;;;;5103235;28;20400;-84
2021/11/06 08:31:03;;;;;;;6.43;4.20;;;;;;;;;;5098402;28;20414;-84
2021/11/06 08:33:31;;;;;;;6.65;4.43;;;;;;;;;;5101831;28;20464;-84
2021/11/06 08:35:59;;;;;;;5.73;4.00;;;;;;;;;;5103071;28;20504;-84
2021/11/06 08:38:26;;;;;;;5.80;4.00;;;;;;;;;;5102951;28;20402;-84
2021/11/06 08:40:55;;;;;;;4.95;3.90;;;;;;;;;;5104526;28;20399;-83
2021/11/06 08:43:23;;;;;;;5.28;3.83;;;;;;;;;;5099879;28;20420;-83
2021/11/06 08:45:50;;;;;;;4.85;3.67;;;;;;;;;;5106533;28;20859;-84
2021/11/06 08:48:17;;;;;;;4.65;3.70;;;;;;;;;;5103505;28;20445;-84
2021/11/06 08:50:44;;;;;;;4.68;3.13;;;;;;;;;;5102657;28;20407;-84
2021/11/06 08:53:12;;;;;;;4.38;2.80;;;;;;;;;;5105337;28;20417;-84
2021/11/06 08:55:39;;;;;;;4.90;2.70;;;;;;;;;;5106683;28;20878;-84
2021/11/06 08:58:07;;;;;;;2.50;2.28;;;;;;;;;;5103881;28;21446;-84
2021/11/06 09:00:37;;;;;;;3.92;2.22;;;;;;;;;;5104198;28;20520;-84
2021/11/06 09:03:07;;;;;;;3.13;2.40;;;;;;;;;;5103048;28;20417;-84
2021/11/06 09:05:35;;;;;;;4.30;3.27;;;;;;;;;;5104939;28;20415;-84
2021/11/06 09:08:02;;;;;;;3.47;2.50;;;;;;;;;;5105105;28;20403;-84
2021/11/06 09:10:30;;;;;;;3.28;1.90;;;;;;;;;;5104140;28;20402;-84
2021/11/06 09:12:57;;;;;;;1.95;1.10;;;;;;;;;;5104136;28;20410;-84
2021/11/06 09:15:25;;;;;;;2.20;1.40;;;;;;;;;;5103157;28;20874;-84
2021/11/06 09:17:53;;;;;;;3.25;1.35;;;;;;;;;;5103409;28;20403;-84
2021/11/06 09:20:20;;;;;;;1.92;1.35;;;;;;;;;;5107302;28;20490;-84
2021/11/06 09:22:50;;;;;;;2.00;1.30;;;;;;;;;;5103049;28;20925;-84
2021/11/06 09:25:17;;;;;;;1.92;1.20;;;;;;;;;;5107017;28;20943;-84
2021/11/06 09:27:44;;;;;;;1.55;0.90;;;;;;;;;;5106620;28;20391;-84
2021/11/06 09:30:12;;;;;;;1.17;1.00;;;;;;;;;;5094290;28;20394;-83
2021/11/06 09:32:41;;;;;;;1.67;1.10;;;;;;;;;;5091461;28;20861;-85
2021/11/06 09:35:09;;;;;;;1.10;1.00;;;;;;;;;;5090022;28;20887;-83
2021/11/06 09:37:37;;;;;;;1.77;0.90;;;;;;;;;;5090021;28;20774;-83
2021/11/06 09:40:07;;;;;;;1.67;1.15;;;;;;;;;;5092476;28;21842;-74
2021/11/06 09:42:35;;;;;;;2.63;1.30;;;;;;;;;;5089788;28;20425;-74
2021/11/06 09:45:02;;;;;;;2.90;1.30;;;;;;;;;;5092536;28;20438;-82
2021/11/06 09:47:29;;;;;;;1.55;1.10;;;;;;;;;;5095720;28;20404;-83
2021/11/06 09:49:57;;;;;;;1.90;1.20;;;;;;;;;;5095502;28;20413;-84
2021/11/06 09:52:24;;;;;;;1.48;1.35;;;;;;;;;;5097540;28;20412;-83
2021/11/06 09:54:51;;;;;;;2.00;1.30;;;;;;;;;;5101294;28;20399;-82
2021/11/06 09:57:18;;;;;;;1.83;1.33;;;;;;;;;;5105712;28;20432;-81
2021/11/06 09:59:45;;;;;;;2.15;1.67;;;;;;;;;;5099182;28;20390;-81
2021/11/06 10:02:12;;;;;;;2.00;1.50;;;;;;;;;;5100745;28;20418;-81
2021/11/06 10:04:39;;;;;;;1.80;1.30;;;;;;;;;;5099786;28;20403;-82
2021/11/06 10:07:19;;;;;;;4.63;1.33;;;;;;;;;;5102821;28;21111;-81
2021/11/06 10:10:01;;;;;;;2.00;1.20;;;;;;;;;;5100003;28;20402;-83
2021/11/06 10:12:44;;;;;;;1.58;1.48;;;;;;;;;;5101866;28;20396;-82
2021/11/06 10:15:11;;;;;;;2.00;1.40;;;;;;;;;;5100966;28;21045;-82
2021/11/06 10:17:38;;;;;;;2.78;1.42;;;;;;;;;;5100855;27;20797;-82
2021/11/06 10:20:27;;;;;;;5.05;1.60;;;;;;;;;;5105605;28;20557;-83
2021/11/06 10:22:59;;;;;;;2.65;1.55;;;;;;;;;;5097118;28;20443;-83
2021/11/06 10:25:26;;;;;;;4.10;2.03;;;;;;;;;;5106059;28;20399;-82
2021/11/06 10:27:55;;;;;;;2.40;1.75;;;;;;;;;;5104237;28;20394;-83
2021/11/06 10:30:26;;;;;;;2.65;1.42;;;;;;;;;;5104745;28;20415;-82
2021/11/06 10:33:06;;;;;;;2.08;1.88;;;;;;;;;;5102880;28;20429;-81
2021/11/06 10:35:36;;;;;;;2.08;1.40;;;;;;;;;;5106614;28;20402;-82
2021/11/06 10:38:07;;;;;;;2.60;2.00;;;;;;;;;;5105752;28;20431;-84
2021/11/06 10:40:39;;;;;;;3.33;1.80;;;;;;;;;;5087273;28;20796;-83
2021/11/06 10:43:07;;;;;;;3.08;1.60;;;;;;;;;;5103562;28;20514;-84
2021/11/06 10:45:36;;;;;;;2.72;1.35;;;;;;;;;;5098030;28;20396;-84
2021/11/06 10:48:06;;;;;;;1.95;1.50;;;;;;;;;;5108879;27;20429;-84
2021/11/06 10:50:53;;;;;;;8.45;1.60;;;;;;;;;;5108365;28;20459;-84
2021/11/06 10:53:37;;;;;;;2.13;1.70;;;;;;;;;;5100159;28;20394;-84
2021/11/06 10:56:06;;;;;;;3.47;1.70;;;;;;;;;;5109976;27;20380;-84
2021/11/06 10:58:35;;;;;;;14.27;2.50;;;;;;;;;;5092089;27;20876;-84
2021/11/06 11:01:05;;;;;;;3.30;1.73;;;;;;;;;;5082797;28;20411;-84
2021/11/06 11:03:34;;;;;;;1.70;1.43;;;;;;;;;;5080291;28;20451;-84
2021/11/06 11:06:01;;;;;;;3.33;1.70;;;;;;;;;;5078065;28;20412;-82
2021/11/06 11:08:29;;;;;;;3.60;1.90;;;;;;;;;;5084257;28;20403;-82
2021/11/06 11:11:05;;;;;;;2.17;1.70;;;;;;;;;;5084382;28;20465;-83
2021/11/06 11:13:33;;;;;;;2.72;1.98;;;;;;;;;;5080403;28;20963;-82
2021/11/06 11:16:14;;;;;;;2.60;1.77;;;;;;;;;;5082937;28;20411;-82
2021/11/06 11:18:41;;;;;;;3.30;1.80;;;;;;;;;;5082449;28;20489;-82
2021/11/06 11:21:12;;;;;;;3.30;1.70;;;;;;;;;;5083847;28;20419;-82
2021/11/06 11:23:40;;;;;;;1.80;1.70;;;;;;;;;;5082083;28;20420;-81
2021/11/06 11:26:08;;;;;;;3.80;1.90;;;;;;;;;;5079877;28;20394;-81
2021/11/06 11:28:35;;;;;;;3.85;1.60;;;;;;;;;;5080204;28;20414;-84
2021/11/06 11:31:03;;;;;;;2.00;1.70;;;;;;;;;;5080931;28;20884;-84
2021/11/06 11:33:30;;;;;;;3.10;1.90;;;;;;;;;;5081896;28;20765;-83
2021/11/06 11:35:57;;;;;;;1.92;1.65;;;;;;;;;;5074865;28;20465;-84
2021/11/06 11:38:23;;;;;;;2.80;1.60;;;;;;;;;;5077054;28;20396;-84
2021/11/06 11:41:06;;;;;;;1.88;1.48;;;;;;;;;;5071230;28;20424;-83
2021/11/06 11:43:45;;;;;;;2.10;1.58;;;;;;;;;;5071401;28;20455;-83
2021/11/06 11:46:17;;;;;;;2.50;1.65;;;;;;;;;;5074087;28;20883;-84
2021/11/06 11:48:52;;;;;;;2.20;1.80;;;;;;;;;;5077631;28;20411;-83
2021/11/06 11:51:30;;;;;;;2.30;1.67;;;;;;;;;;5079822;28;20735;-83
2021/11/06 11:54:01;;;;;;;2.08;1.70;;;;;;;;;;5098583;27;20411;-83
2021/11/06 11:56:29;;;;;;;2.22;1.40;;;;;;;;;;5110246;22;20418;-92
2021/11/06 11:58:58;;;;;;;2.10;1.60;;;;;;;;;;5100694;28;20413;-90
2021/11/06 12:01:26;;;;;;;2.30;1.60;;;;;;;;;;5101230;28;20979;-92
2021/11/06 12:03:54;;;;;;;2.38;1.85;;;;;;;;;;5099734;28;20421;-91
2021/11/06 12:06:29;;;;;;;2.10;1.77;;;;;;;;;;5095538;28;20404;-92
2021/11/06 12:08:59;;;;;;;2.95;1.70;;;;;;;;;;5089866;28;20427;-92
2021/11/06 12:11:33;;;;;;;2.35;1.85;;;;;;;;;;5099247;28;20414;-92
2021/11/06 12:14:16;;;;;;;3.42;1.90;;;;;;;;;;5096493;28;20394;-91
2021/11/06 12:16:47;;;;;;;4.15;1.75;;;;;;;;;;5102898;28;20496;-89
2021/11/06 12:19:32;;;;;;;2.40;2.20;;;;;;;;;;5095160;28;20426;-90
2021/11/06 12:22:11;;;;;;;2.00;1.50;;;;;;;;;;5107626;28;20402;-88
2021/11/06 12:24:38;;;;;;;4.60;1.90;;;;;;;;;;5101445;28;20418;-90
2021/11/06 12:27:08;;;;;;;2.38;1.60;;;;;;;;;;5108516;28;20409;-91
2021/11/06 12:29:53;;;;;;;2.45;1.52;;;;;;;;;;5098542;28;20394;-89
2021/11/06 12:32:27;;;;;;;1.80;1.35;;;;;;;;;;5090879;28;20418;-90
2021/11/06 12:34:56;;;;;;;2.22;1.60;;;;;;;;;;5081441;28;20394;-89
2021/11/06 12:37:46;;;;;;;2.40;1.20;;;;;;;;;;5074552;28;20751;-90
2021/11/06 12:40:25;;;;;;;2.30;1.57;;;;;;;;;;5096443;28;20949;-90
2021/11/06 12:43:16;;;;;;;2.17;1.50;;;;;;;;;;5094766;28;21185;-89
2021/11/06 12:45:47;;;;;;;2.50;1.40;;;;;;;;;;5099996;28;20882;-91
2021/11/06 12:48:17;;;;;;;2.25;1.50;;;;;;;;;;5096835;28;20420;-90
2021/11/06 12:50:45;;;;;;;1.50;1.40;;;;;;;;;;5077200;28;20396;-92
2021/11/06 12:53:22;;;;;;;2.30;1.60;;;;;;;;;;5096069;28;20427;-90
2021/11/06 12:55:58;;;;;;;2.42;1.75;;;;;;;;;;5095592;28;20410;-91
2021/11/06 12:58:25;;;;;;;1.70;1.60;;;;;;;;;;5099848;28;20455;-90
2021/11/06 13:00:54;;;;;;;2.55;1.77;;;;;;;;;;5097650;28;20420;-90
2021/11/06 13:03:37;;;;;;;1.92;1.75;;;;;;;;;;5092507;28;20919;-89
2021/11/06 13:06:18;;;;;;;1.85;1.50;;;;;;;;;;5100502;28;20415;-90
2021/11/06 13:09:00;;;;;;;2.33;1.70;;;;;;;;;;5096701;28;20862;-90
2021/11/06 13:12:00;;;;;;;2.20;1.85;;;;;;;;;;5096885;28;20414;-91
2021/11/06 13:14:35;;;;;;;3.35;1.77;;;;;;;;;;5097859;28;20959;-91
2021/11/06 13:17:07;;;;;;;2.83;1.60;;;;;;;;;;5095787;28;20917;-91
2021/11/06 13:19:42;;;;;;;2.43;1.20;;;;;;;;;;5093365;27;20402;-91
2021/11/06 13:22:09;;;;;;;2.20;1.40;;;;;;;;;;5095070;28;20401;-90
2021/11/06 13:24:54;;;;;;;1.35;1.25;;;;;;;;;;5093468;28;20909;-87
2021/11/06 13:27:57;;;;;;;1.40;1.30;;;;;;;;;;5093412;28;20407;-87
2021/11/06 13:30:32;;;;;;;3.03;1.50;;;;;;;;;;5093401;28;20420;-92
2021/11/06 13:33:04;;;;;;;1.80;1.30;;;;;;;;;;5098624;28;20411;-94
2021/11/06 13:35:34;;;;;;;1.80;1.30;;;;;;;;;;5099775;27;20455;-91
2021/11/06 13:38:30;;;;;;;2.03;1.40;;;;;;;;;;5098599;28;20401;-93
2021/11/06 13:41:01;;;;;;;2.00;1.40;;;;;;;;;;5095790;28;20481;-79
2021/11/06 13:43:32;;;;;;;1.65;1.30;;;;;;;;;;5095890;28;20435;-89
2021/11/06 13:46:10;;;;;;;1.55;1.17;;;;;;;;;;5093386;28;20411;-90
2021/11/06 13:48:42;;;;;;;1.70;1.40;;;;;;;;;;5078794;28;20782;-91
2021/11/06 13:51:14;;;;;;;2.50;1.40;;;;;;;;;;5097987;28;20401;-92
2021/11/06 13:53:53;;;;;;;1.73;1.35;;;;;;;;;;5097975;28;20417;-91
2021/11/06 13:56:20;;;;;;;1.42;1.33;;;;;;;;;;5093990;28;20408;-91
2021/11/06 13:58:48;;;;;;;1.58;1.10;;;;;;;;;;5077851;28;20411;-91
2021/11/06 14:01:15;;;;;;;2.22;1.20;;;;;;;;;;5076680;28;20402;-92
2021/11/06 14:03:47;;;;;;;1.85;1.30;;;;;;;;;;5082300;28;20412;-91
2021/11/06 14:06:14;;;;;;;1.40;1.20;;;;;;;;;;5101328;28;20407;-91
2021/11/06 14:08:41;;;;;;;1.67;1.30;;;;;;;;;;5098838;28;20399;-92
2021/11/06 14:11:08;;;;;;;1.60;1.50;;;;;;;;;;5099221;28;20432;-91
2021/11/06 14:13:35;;;;;;;2.28;1.58;;;;;;;;;;5101428;28;20398;-91
2021/11/06 14:16:14;;;;;;;1.60;1.27;;;;;;;;;;5098250;28;20838;-92
2021/11/06 14:18:46;;;;;;;1.60;1.50;;;;;;;;;;5104354;28;20430;-90
2021/11/06 14:21:15;;;;;;;1.65;1.55;;;;;;;;;;5101635;28;20470;-93
2021/11/06 14:23:43;;;;;;;1.37;1.27;;;;;;;;;;5104300;28;20410;-91
2021/11/06 14:26:12;;;;;;;1.90;1.38;;;;;;;;;;5097671;28;20471;-91
2021/11/06 14:28:47;;;;;;;6.97;3.60;;;;;;;;;;5099011;28;20410;-90
2021/11/06 14:31:14;;;;;;;3.08;1.60;;;;;;;;;;5100685;28;20416;-93
2021/11/06 14:33:44;;;;;;;1.70;1.60;;;;;;;;;;5099671;28;20407;-91
2021/11/06 14:36:17;;;;;;;2.47;1.77;;;;;;;;;;5100368;28;20402;-91
2021/11/06 14:38:56;;;;;;;1.85;1.70;;;;;;;;;;5096994;28;20875;-90
2021/11/06 14:41:25;;;;;;;2.10;1.90;;;;;;;;;;5102109;28;21196;-90
2021/11/06 14:43:54;;;;;;;3.10;2.10;;;;;;;;;;5085333;28;20407;-92
2021/11/06 14:46:22;;;;;;;2.47;1.40;;;;;;;;;;5102226;28;20735;-91
2021/11/06 14:48:57;;;;;;;1.85;1.55;;;;;;;;;;5104680;28;20390;-89
2021/11/06 14:51:24;;;;;;;1.63;1.40;;;;;;;;;;5099183;28;20452;-81
2021/11/06 14:53:54;;;;;;;3.25;1.42;;;;;;;;;;5100194;28;20407;-82